Logo AVAMET
Benvolgut visitant, si us plau, ingressa Recuperar contrasenya

Inforatge Bellreguard

Dades diàries. Acumulats / Últims 30 dies disponibles

Data Temperatura (°C) Humitat rel. (%) Pressió rel. (hPa) Vent (km/h) Precipitació
Mínima Mitjana Màxima Amplitud
tèrmica
Mínima Mitjana Màxima Mínima Mitjana Màxima Predom. Mitjana Ràfega
màxima
Total
(mm)
Índex-n
Mínima Mitjana Màxima Mínima Mitjana Màxima n
0 a 1
P0 max
mm 5'
Dades mensuals acumulades fins l'últim dia disponible
10/2019 16,3 18,1 19,8 22,4 25,3 27,1 32,1 15,8 27 73 93 1.008 1.016 1.023   5,3 29,6 0,0
Dades anuals acumulades fins l'últim dia disponible
2019 1,4 15,3 27,1 19,7 11,4 24,4 40,0 38,6 15 67 98 993 1.017 1.036   6,7 72,2 367,6
Últims 30 dies disponibles
13-10-2019 18,4     22,2     25,5 7,1 73 85 93 1.015 1.017 1.018 E 4,8 17,7 0,0
12-10-2019 18,7     21,7     25,3 6,6 74 83 90 1.017 1.018 1.020 SW 3,9 14,5 0,0
11-10-2019 18,0     21,6     25,3 7,3 72 83 92 1.018 1.021 1.023 SW 5,6 27,4 0,0
10-10-2019 19,6     22,0     25,8 6,2 67 83 90 1.019 1.021 1.022 SW 3,9 20,9 0,0
09-10-2019 18,1     22,6     26,4 8,3 63 75 85 1.015 1.016 1.019 SSE 3,9 19,3 0,0
08-10-2019 16,3     21,8     28,6 12,3 56 73 87 1.016 1.018 1.020 SSO 5,3 19,3 0,0
07-10-2019 18,8     22,0     26,7 7,9 44 74 91 1.015 1.016 1.019 S 5,6 29,6 0,0
06-10-2019 18,1     21,7     25,7 7,6 69 84 91 1.015 1.017 1.019 S 5,3 19,3 0,0
05-10-2019 16,5     21,9     27,1 10,6 55 75 89 1.014 1.015 1.017 S 5,1 19,3 0,0
04-10-2019 16,4     22,5     28,7 12,3 34 61 76 1.013 1.015 1.017 S 6,7 25,9 0,0
03-10-2019 16,4     20,9     26,6 10,2 35 62 79 1.015 1.016 1.018 SSO 6,7 22,6 0,0
02-10-2019 19,8     24,4     28,2 8,4 30 46 68 1.010 1.013 1.016 SSO 6,7 27,8 0,0
01-10-2019 19,8     25,5     32,1 12,3 27 65 93 1.008 1.011 1.015 SSO 5,6 24,1 0,0
30-09-2019 19,1     23,7     27,2 8,1 67 78 88 1.015 1.016 1.018 SE 3,1 18,5 0,0
29-09-2019 18,8     24,7     31,2 12,4 48 73 92 1.014 1.017 1.019 S 5,2 18,5 0,0
28-09-2019 19,0     23,4     27,8 8,8 65 82 91 1.018 1.019 1.021 SSE 3,9 19,3 0,0
27-09-2019 19,4     24,9     31,9 12,5 46 69 86 1.015 1.017 1.018 S 5,4 20,9 0,0
26-09-2019 20,1     23,9     29,4 9,3 64 81 91 1.016 1.018 1.020 SSO 4,4 22,6 0,0
25-09-2019 22,1     25,4     29,7 7,6 39 62 87 1.013 1.015 1.018 SSO 9,6 33,9 0,0
24-09-2019 19,6     26,3     34,5 14,9 26 51 82 1.013 1.016 1.019 OSO 7,2 25,9 0,0
23-09-2019 20,7     23,4     26,4 5,7 47 65 84 1.016 1.018 1.020 SSO 6,8 31,5 0,0
22-09-2019 21,6     25,9     29,4 7,8 55 72 91 1.011 1.012 1.015 S 5,5 22,6 0,0
21-09-2019 21,9     23,9     26,3 4,4 76 86 94 1.011 1.013 1.015 SSE 3,4 19,3 2,4 0,58 1,20
20-09-2019 20,6     23,1     25,8 5,2 77 86 92 1.015 1.017 1.018 SSE 6,1 25,9 0,0
19-09-2019 19,1     23,1     26,8 7,7 69 80 91 1.016 1.017 1.018 SSE 4,7 19,3 0,0
18-09-2019 20,6     24,2     28,8 8,2 47 76 92 1.014 1.014 1.016 S 4,5 19,3 0,0
17-09-2019 19,9     24,5     26,9 7,0 73 82 92 1.014 1.016 1.018 SSE 5,0 22,6 0,0
16-09-2019 23,2     24,3     26,6 3,4 75 88 95 1.017 1.018 1.020 ENE 6,4 22,6 0,0
15-09-2019 23,0     23,7     25,1 2,1 87 91 95 1.018 1.019 1.022 ENE 9,1 32,2 0,0
14-09-2019 18,2     22,0     24,3 6,1 76 86 94 1.020 1.023 1.025 SSE 6,1 42,6 6,8 2,00
Últims 13 mesos disponibles
09/2019 14,6 20,3 23,2 24,0 23,6 27,9 35,6 21,0 48 76 91 1.010 1.017 1.023 S 6,5 66,7 72,0
08/2019 18,3 22,6 27,1 27,0 27,7 31,7 40,0 21,7 50 71 82 1.010 1.015 1.019 SSE 6,2 48,2 27,0
07/2019 20,8 23,0 26,3 27,2 28,0 31,6 37,6 16,8 42 68 80 1.005 1.013 1.021 SSE 6,7 58,0 0,4
06/2019 13,2 18,0 22,6 23,1 20,7 27,6 34,1 20,9 37 66 82 1.009 1.015 1.022 SSE 6,0 46,7 0,0
05/2019 9,6 14,9 22,2 19,5 18,5 24,3 31,6 22,0 35 67 81 1.006 1.015 1.024 SSE 6,4 51,9 5,6
04/2019 8,8 12,2 17,0 16,0 14,6 20,1 29,7 20,9 38 68 94 1.000 1.013 1.025 SSE 7,8 51,9 204,8
03/2019 6,2 9,5 16,0 14,8 14,1 19,9 28,6 22,4 30 61 93 1.011 1.023 1.030 SSE 5,8 61,1 55,4
02/2019 4,5 7,7 11,7 12,4 13,3 17,5 22,7 18,2 33 64 84 995 1.025 1.034 S 6,7 72,2 0,0
01/2019 1,4 7,4 14,4 11,6 11,4 16,9 21,2 19,8 40 59 80 1.002 1.019 1.031 SSO 8,1 61,1 2,4
12/2018 4,8 9,5 14,3 13,6 14,8 19,2 25,9 21,1 53 69 90 1.010 1.025 1.031 SSO 6,3 51,9 19,6
11/2018 7,1 12,4 15,7 15,3 16,3 19,0 23,3 16,2 48 73 96 1.001 1.016 1.024 OSO 6,3 58,0 204,4
Tots els anys disponibles
Temperatura (°C)
Humitat relativa (%)
Velocitat del vent i ràfega màxima (km/h)
Direcció del vent (°)
Pressió (hPa)
Precipitació (mm)
Nota sobre les dades: s'avisa a l'usuari de la provisionalitat i no oficialitat d'aquestes dades
Logo AVAMET blanc
Web allotjada a Sollutia
Llicència de Creative CommonsLa web d'AVAMET i els seus continguts estan subjectes a una llicència de
Reconeixement - No Comercial - Compartir igual
Properes estacions: Altea - Club Nàutic d'Altea (Soci),    - - - - -      Últimes estacions: Castielfabib (Soci), Sant Mateu (Soci), Vallada (Soci), Agullent (Soci), Llíria - Bodegas del Campo (Soci), La Pobla Tornesa (Soci) - - -